Time;durP1;ratioP1;P1;durP2;ratioP2;P2;SDS_P1;SDS_P2;PMS_P1;PMS_P2;Temp;Humidity;BMP_temperature;BMP_pressure;BME280_temperature;BME280_humidity;BME280_pressure;Samples;Min_cycle;Max_cycle;Signal;HPM_P1;HPM_P2
2022/09/21 00:01:30;;;;;;;8.90;5.90;;;;;;;9.77;85.38;100412.95;130284;1267;109412;-71
2022/09/21 00:04:35;;;;;;;7.30;5.10;;;;;;;9.72;85.94;100411.47;130246;1267;108618;-70
2022/09/21 00:07:41;;;;;;;9.90;5.90;;;;;;;9.72;85.81;100413.78;130239;1268;108747;-71
2022/09/21 00:10:51;;;;;;;8.20;5.80;;;;;;;9.73;86.42;100416.92;130129;1267;108896;-70
2022/09/21 00:13:59;;;;;;;8.00;5.90;;;;;;;9.70;86.88;100418.44;130144;1268;108621;-70
2022/09/21 00:17:06;;;;;;;8.20;5.40;;;;;;;9.70;85.87;100413.67;130184;1268;108623;-71
2022/09/21 00:20:12;;;;;;;8.00;5.10;;;;;;;9.69;86.03;100409.98;130412;1267;108985;-71
2022/09/21 00:23:17;;;;;;;8.60;5.50;;;;;;;9.67;86.13;100408.54;130288;1268;108873;-72
2022/09/21 00:26:25;;;;;;;8.50;6.10;;;;;;;9.67;86.16;100409.78;130197;1267;107640;-71
2022/09/21 00:29:30;;;;;;;9.90;5.80;;;;;;;9.68;86.54;100408.97;130347;1267;108513;-71
2022/09/21 00:32:38;;;;;;;10.10;6.30;;;;;;;9.69;86.55;100413.86;130163;1268;108699;-73
2022/09/21 00:35:43;;;;;;;8.20;5.00;;;;;;;9.68;86.25;100415.58;130295;1267;108817;-70
2022/09/21 00:38:53;;;;;;;7.00;5.00;;;;;;;9.68;86.41;100416.09;130285;1267;109566;-71
2022/09/21 00:41:58;;;;;;;9.70;5.70;;;;;;;9.69;86.47;100416.02;130235;1267;107294;-70
2022/09/21 00:45:05;;;;;;;7.60;5.70;;;;;;;9.72;86.72;100416.08;130238;1268;108628;-71
2022/09/21 00:48:10;;;;;;;9.70;5.90;;;;;;;9.73;86.45;100416.89;130359;1267;108907;-70
2022/09/21 00:51:17;;;;;;;8.30;6.00;;;;;;;9.76;86.28;100410.51;130163;1267;108479;-73
2022/09/21 00:54:27;;;;;;;9.40;6.30;;;;;;;9.76;86.88;100405.07;130237;1267;109058;-71
2022/09/21 00:57:35;;;;;;;7.50;5.30;;;;;;;9.67;87.29;100408.96;130179;1267;108776;-71
2022/09/21 01:00:41;;;;;;;8.60;6.40;;;;;;;9.61;87.60;100411.40;130205;1268;107742;-71
2022/09/21 01:03:48;;;;;;;9.70;6.80;;;;;;;9.59;87.74;100409.71;130306;1267;108699;-72
2022/09/21 01:06:54;;;;;;;10.00;6.70;;;;;;;9.59;87.52;100411.48;130367;1267;109035;-71
2022/09/21 01:10:05;;;;;;;8.50;6.00;;;;;;;9.57;87.64;100414.42;130440;1267;108360;-71
2022/09/21 01:13:20;;;;;;;9.30;6.10;;;;;;;9.55;88.41;100413.91;130440;1267;109714;-71
2022/09/21 01:16:33;;;;;;;9.60;6.60;;;;;;;9.56;87.49;100414.36;130138;1268;108575;-71
2022/09/21 01:20:20;;;;;;;10.50;7.80;;;;;;;9.63;87.55;100415.66;130390;1266;109724;-72
2022/09/21 01:23:48;;;;;;;10.70;7.20;;;;;;;9.61;87.62;100423.13;129805;1273;108761;-71
2022/09/21 01:27:23;;;;;;;8.40;6.50;;;;;;;9.55;88.93;100427.21;130131;1267;108645;-72
2022/09/21 01:30:30;;;;;;;7.80;5.90;;;;;;;9.51;88.80;100430.29;130461;1267;107440;-71
2022/09/21 01:33:41;;;;;;;9.30;6.80;;;;;;;9.52;88.67;100431.79;130395;1267;108549;-71
2022/09/21 01:36:50;;;;;;;10.90;7.40;;;;;;;9.53;88.74;100432.23;130333;1267;109175;-72
2022/09/21 01:40:00;;;;;;;10.30;7.90;;;;;;;9.52;88.91;100437.82;130359;1267;109229;-72
2022/09/21 01:43:09;;;;;;;9.70;6.50;;;;;;;9.51;89.30;100436.92;130181;1268;108781;-71
2022/09/21 01:46:18;;;;;;;9.60;6.60;;;;;;;9.49;89.13;100437.08;130133;1267;108902;-71
2022/09/21 01:49:28;;;;;;;9.50;7.20;;;;;;;9.49;89.40;100435.43;130167;1269;108623;-71
2022/09/21 01:52:40;;;;;;;12.30;7.90;;;;;;;9.51;89.18;100437.40;130262;1267;108400;-71
2022/09/21 01:55:50;;;;;;;11.20;8.00;;;;;;;9.53;89.15;100438.33;130215;1269;109771;-74
2022/09/21 01:59:03;;;;;;;10.60;7.10;;;;;;;9.52;89.07;100439.08;130281;1267;108648;-71
2022/09/21 02:02:14;;;;;;;8.70;6.60;;;;;;;9.54;89.17;100442.63;130196;1268;109411;-74
2022/09/21 02:05:22;;;;;;;11.40;7.50;;;;;;;9.53;88.93;100441.80;130224;1267;110510;-71
2022/09/21 02:08:31;;;;;;;11.20;7.90;;;;;;;9.58;88.59;100444.90;130087;1269;106994;-71
2022/09/21 02:11:42;;;;;;;10.60;8.10;;;;;;;9.65;88.35;100445.54;130191;1267;106900;-72
2022/09/21 02:14:50;;;;;;;11.30;8.70;;;;;;;9.68;88.47;100448.27;130239;1267;108927;-70
2022/09/21 02:18:06;;;;;;;10.80;7.20;;;;;;;9.64;88.53;100450.05;130242;1267;108982;-70
2022/09/21 02:21:22;;;;;;;11.30;8.10;;;;;;;9.63;88.69;100456.36;130127;1267;109366;-71
2022/09/21 02:24:38;;;;;;;11.30;8.70;;;;;;;9.63;88.90;100458.46;130233;1268;108191;-70
2022/09/21 02:27:53;;;;;;;11.70;7.80;;;;;;;9.63;89.49;100459.21;130210;1268;108859;-71
2022/09/21 02:31:07;;;;;;;10.20;7.20;;;;;;;9.59;89.50;100455.98;130199;1267;108641;-71
2022/09/21 02:34:20;;;;;;;10.90;7.60;;;;;;;9.59;89.13;100453.85;130177;1269;108152;-70
2022/09/21 02:37:34;;;;;;;10.00;7.60;;;;;;;9.61;89.32;100451.54;130221;1267;108686;-69
2022/09/21 02:40:43;;;;;;;10.50;8.00;;;;;;;9.60;89.57;100456.81;130167;1267;106746;-71
2022/09/21 02:43:58;;;;;;;11.90;7.60;;;;;;;9.55;89.41;100460.46;130424;1267;109496;-73
2022/09/21 02:47:09;;;;;;;10.30;6.50;;;;;;;9.55;89.36;100464.73;130256;1268;108902;-73
2022/09/21 02:50:20;;;;;;;10.00;7.50;;;;;;;9.58;89.43;100466.75;130391;1267;107650;-72
2022/09/21 02:53:30;;;;;;;10.70;8.10;;;;;;;9.58;89.57;100465.49;130446;1267;107374;-72
2022/09/21 02:56:36;;;;;;;11.00;7.90;;;;;;;9.62;89.44;100469.58;130307;1267;108735;-73
2022/09/21 02:59:42;;;;;;;10.40;8.00;;;;;;;9.62;89.07;100466.89;130375;1267;108911;-73
2022/09/21 03:02:47;;;;;;;9.20;7.10;;;;;;;9.65;89.69;100471.29;130273;1267;108747;-75
2022/09/21 03:05:55;;;;;;;11.50;8.30;;;;;;;9.65;89.42;100470.08;130315;1267;109145;-76
2022/09/21 03:09:00;;;;;;;12.00;8.50;;;;;;;9.70;89.58;100473.35;130448;1267;108686;-75
2022/09/21 03:12:06;;;;;;;14.30;9.60;;;;;;;9.74;89.63;100466.17;130485;1267;109392;-75
2022/09/21 03:15:12;;;;;;;10.70;8.40;;;;;;;9.73;89.72;100468.75;130261;1267;108655;-75
2022/09/21 03:18:17;;;;;;;10.90;7.50;;;;;;;9.70;89.71;100464.02;130322;1267;108679;-74
2022/09/21 03:21:23;;;;;;;11.80;8.80;;;;;;;9.70;89.98;100466.54;130483;1267;108663;-74
2022/09/21 03:24:46;;;;;;;11.30;9.20;;;;;;;9.70;90.15;100471.67;130273;1266;109024;-75
2022/09/21 03:27:52;;;;;;;11.90;8.80;;;;;;;9.70;89.96;100470.94;130353;1267;108738;-77
2022/09/21 03:30:58;;;;;;;13.00;8.70;;;;;;;9.69;90.53;100479.11;130346;1267;108685;-77
2022/09/21 03:34:03;;;;;;;12.00;8.00;;;;;;;9.65;90.59;100480.15;130429;1267;108668;-77
2022/09/21 03:37:10;;;;;;;12.80;10.10;;;;;;;9.63;91.03;100483.88;130409;1268;108809;-76
2022/09/21 03:40:18;;;;;;;11.10;8.70;;;;;;;9.59;91.32;100481.55;130311;1269;108579;-75
2022/09/21 03:43:24;;;;;;;12.50;9.10;;;;;;;9.63;90.81;100478.55;130423;1267;109693;-75
2022/09/21 03:46:29;;;;;;;11.80;8.70;;;;;;;9.66;90.48;100482.16;130279;1267;109022;-75
2022/09/21 03:49:34;;;;;;;11.30;8.20;;;;;;;9.65;90.97;100486.57;130327;1267;109147;-75
2022/09/21 03:52:40;;;;;;;11.80;8.90;;;;;;;9.65;91.36;100494.20;130352;1268;108836;-76
2022/09/21 03:55:45;;;;;;;12.00;9.30;;;;;;;9.65;90.85;100492.94;130379;1267;108706;-76
2022/09/21 03:58:51;;;;;;;13.60;9.90;;;;;;;9.74;90.78;100497.64;130235;1268;109293;-76
2022/09/21 04:01:56;;;;;;;12.70;9.20;;;;;;;9.72;91.25;100503.14;130356;1267;108512;-75
2022/09/21 04:05:02;;;;;;;10.80;7.80;;;;;;;9.71;91.01;100506.42;130225;1268;108849;-75
2022/09/21 04:08:08;;;;;;;13.70;10.10;;;;;;;9.73;91.22;100505.86;130394;1267;108717;-75
2022/09/21 04:11:17;;;;;;;13.00;10.20;;;;;;;9.73;91.30;100507.83;130283;1267;107436;-75
2022/09/21 04:14:23;;;;;;;14.60;11.50;;;;;;;9.75;91.23;100511.20;130372;1267;108628;-75
2022/09/21 04:17:30;;;;;;;11.90;9.50;;;;;;;9.74;91.21;100513.46;130301;1268;108704;-75
2022/09/21 04:20:35;;;;;;;10.70;8.70;;;;;;;9.72;91.82;100513.82;130457;1267;108865;-75
2022/09/21 04:23:40;;;;;;;13.40;10.20;;;;;;;9.70;91.82;100514.70;130282;1268;108683;-77
2022/09/21 04:26:46;;;;;;;12.40;10.70;;;;;;;9.74;91.77;100513.95;130539;1267;108804;-75
2022/09/21 04:29:52;;;;;;;13.00;10.50;;;;;;;9.76;91.57;100520.30;130310;1267;108819;-75
2022/09/21 04:32:57;;;;;;;12.00;8.10;;;;;;;9.73;92.08;100517.02;130408;1267;108964;-75
2022/09/21 04:36:04;;;;;;;12.30;8.90;;;;;;;9.74;91.53;100519.44;130384;1267;108719;-76
2022/09/21 04:39:09;;;;;;;13.10;9.10;;;;;;;9.78;91.54;100517.13;130311;1267;108899;-77
2022/09/21 04:42:14;;;;;;;13.90;9.50;;;;;;;9.81;91.43;100519.46;130362;1267;108499;-76
2022/09/21 04:45:20;;;;;;;13.30;10.00;;;;;;;9.86;91.36;100515.73;130383;1267;108814;-76
2022/09/21 04:48:26;;;;;;;10.20;8.10;;;;;;;9.85;91.92;100518.85;130385;1267;108702;-75
2022/09/21 04:51:31;;;;;;;10.40;7.70;;;;;;;9.85;91.73;100520.80;130394;1267;107765;-76
2022/09/21 04:54:36;;;;;;;12.20;9.20;;;;;;;9.88;91.62;100519.42;130436;1269;109394;-75
2022/09/21 04:57:43;;;;;;;11.00;8.50;;;;;;;9.94;91.69;100518.69;130245;1269;108990;-75
2022/09/21 05:00:52;;;;;;;15.30;10.50;;;;;;;9.97;91.82;100528.73;130379;1270;108690;-74
2022/09/21 05:04:00;;;;;;;11.10;8.50;;;;;;;9.97;91.61;100529.13;130425;1267;108778;-75
2022/09/21 05:07:06;;;;;;;10.70;7.80;;;;;;;9.98;91.86;100525.75;130549;1266;108692;-74
2022/09/21 05:10:12;;;;;;;11.50;8.40;;;;;;;9.98;91.91;100528.58;130361;1267;108713;-74
2022/09/21 05:13:17;;;;;;;13.50;10.20;;;;;;;10.00;91.95;100531.81;130390;1268;108701;-75
2022/09/21 05:16:23;;;;;;;11.70;8.90;;;;;;;10.00;92.12;100538.37;130389;1267;108992;-72
2022/09/21 05:19:28;;;;;;;12.80;8.90;;;;;;;9.98;92.13;100541.55;130301;1266;108731;-73
2022/09/21 05:22:34;;;;;;;13.40;8.30;;;;;;;10.00;92.53;100544.10;130349;1267;108677;-74
2022/09/21 05:25:39;;;;;;;12.60;9.40;;;;;;;10.01;92.73;100548.98;130170;1269;108538;-74
2022/09/21 05:28:46;;;;;;;12.50;9.30;;;;;;;10.05;92.25;100553.72;130419;1267;108758;-75
2022/09/21 05:31:55;;;;;;;15.40;10.10;;;;;;;10.11;92.33;100550.00;130356;1267;108599;-74
2022/09/21 05:35:12;;;;;;;12.60;8.90;;;;;;;10.09;92.32;100559.21;130449;1267;107507;-74
2022/09/21 05:38:20;;;;;;;15.60;9.00;;;;;;;10.09;92.46;100562.30;130329;1267;108621;-74
2022/09/21 05:41:26;;;;;;;14.50;9.60;;;;;;;10.10;92.06;100570.86;130394;1267;107657;-75
2022/09/21 05:44:32;;;;;;;12.60;9.10;;;;;;;10.13;92.26;100569.15;130359;1267;108804;-76
2022/09/21 05:47:46;;;;;;;13.60;9.00;;;;;;;10.15;92.35;100576.81;130039;1268;109213;-76
2022/09/21 05:51:01;;;;;;;13.80;9.00;;;;;;;10.17;92.31;100573.07;130432;1267;108914;-74
2022/09/21 05:54:15;;;;;;;12.10;7.50;;;;;;;10.17;92.64;100580.38;130374;1267;108882;-74
2022/09/21 05:57:28;;;;;;;22.10;12.70;;;;;;;10.17;92.16;100579.98;130427;1267;106778;-75
2022/09/21 06:00:42;;;;;;;15.50;10.20;;;;;;;10.24;92.11;100580.05;130355;1267;108572;-75
2022/09/21 06:03:49;;;;;;;21.00;10.90;;;;;;;10.33;92.33;100577.54;130398;1267;108937;-74
2022/09/21 06:06:54;;;;;;;19.20;10.20;;;;;;;10.36;92.13;100575.96;130331;1267;108704;-74
2022/09/21 06:10:00;;;;;;;13.40;7.80;;;;;;;10.40;91.80;100580.89;130353;1267;109210;-74
2022/09/21 06:13:05;;;;;;;17.90;10.20;;;;;;;10.44;91.55;100582.17;130474;1267;109064;-74
2022/09/21 06:16:11;;;;;;;13.80;9.90;;;;;;;10.45;92.08;100584.00;130420;1267;108738;-74
2022/09/21 06:19:16;;;;;;;15.60;9.80;;;;;;;10.45;91.92;100586.55;130107;1269;108695;-75
2022/09/21 06:22:21;;;;;;;18.40;9.40;;;;;;;10.46;92.12;100589.45;130268;1268;108789;-76
2022/09/21 06:25:27;;;;;;;13.90;7.50;;;;;;;10.46;91.79;100584.28;130188;1269;108209;-74
2022/09/21 06:28:32;;;;;;;14.40;9.40;;;;;;;10.52;92.03;100586.95;130330;1267;108983;-75
2022/09/21 06:31:38;;;;;;;12.40;7.90;;;;;;;10.57;91.64;100587.49;130429;1267;108946;-74
2022/09/21 06:34:43;;;;;;;8.80;7.20;;;;;;;10.65;91.41;100586.08;130277;1268;108802;-74
2022/09/21 06:37:48;;;;;;;9.10;7.00;;;;;;;10.71;91.46;100589.92;130331;1267;108824;-74
2022/09/21 06:40:54;;;;;;;10.10;6.40;;;;;;;10.79;91.84;100591.87;130323;1267;109132;-75
2022/09/21 06:43:59;;;;;;;8.30;6.80;;;;;;;10.85;91.36;100590.55;130324;1267;108807;-74
2022/09/21 06:47:05;;;;;;;10.30;7.10;;;;;;;10.97;91.18;100590.11;130382;1267;108704;-74
2022/09/21 06:50:11;;;;;;;9.20;6.60;;;;;;;11.07;90.90;100591.98;131060;1267;108560;-76
2022/09/21 06:53:17;;;;;;;10.60;7.40;;;;;;;11.18;90.68;100591.30;131710;1267;109778;-74
2022/09/21 06:56:23;;;;;;;10.10;6.90;;;;;;;11.27;90.05;100594.04;130353;1267;108748;-75
2022/09/21 06:59:28;;;;;;;7.70;5.40;;;;;;;11.31;89.98;100597.14;130283;1267;110112;-75
2022/09/21 07:02:34;;;;;;;12.60;6.80;;;;;;;11.48;90.09;100595.71;130454;1267;107478;-77
2022/09/21 07:05:39;;;;;;;13.70;7.10;;;;;;;11.55;89.56;100602.48;130721;1266;108775;-78
2022/09/21 07:08:45;;;;;;;12.20;7.10;;;;;;;11.58;89.17;100605.20;130577;1267;107378;-78
2022/09/21 07:11:50;;;;;;;8.20;6.60;;;;;;;11.52;88.76;100612.83;130505;1267;107713;-77
2022/09/21 07:14:55;;;;;;;8.20;6.30;;;;;;;11.42;88.87;100610.73;130495;1267;108834;-79
2022/09/21 07:18:01;;;;;;;9.90;6.10;;;;;;;11.37;88.97;100611.53;130881;1267;109122;-77
2022/09/21 07:21:08;;;;;;;7.40;5.70;;;;;;;11.38;89.17;100609.80;130407;1267;108746;-79
2022/09/21 07:24:14;;;;;;;7.80;6.10;;;;;;;11.47;89.33;100609.88;130548;1267;108652;-77
2022/09/21 07:27:20;;;;;;;8.20;6.20;;;;;;;11.55;89.33;100605.51;130461;1267;108748;-76
2022/09/21 07:30:26;;;;;;;6.70;5.50;;;;;;;11.58;88.59;100611.42;130472;1267;108657;-75
2022/09/21 07:33:32;;;;;;;6.20;4.60;;;;;;;11.57;89.04;100611.03;130399;1267;110100;-75
2022/09/21 07:36:38;;;;;;;7.90;6.00;;;;;;;11.57;88.69;100614.59;130487;1267;108803;-75
2022/09/21 07:39:43;;;;;;;8.00;5.90;;;;;;;11.54;88.35;100620.04;130506;1267;109163;-76
2022/09/21 07:42:49;;;;;;;6.90;5.80;;;;;;;11.62;88.49;100614.48;130449;1267;108790;-77
2022/09/21 07:45:55;;;;;;;6.70;5.90;;;;;;;11.66;88.17;100617.23;130349;1267;107735;-79
2022/09/21 07:49:03;;;;;;;7.10;4.80;;;;;;;11.65;88.17;100613.80;130523;1267;108858;-76
2022/09/21 07:52:08;;;;;;;5.30;4.10;;;;;;;11.67;88.69;100614.66;130608;1267;108598;-77
2022/09/21 07:55:14;;;;;;;6.60;4.90;;;;;;;11.82;88.29;100617.14;130498;1267;107590;-75
2022/09/21 08:01:43;;;;;;;4.80;4.30;;;;;;;12.12;87.86;100621.80;130336;1267;108771;-76
2022/09/21 08:04:48;;;;;;;7.40;4.40;;;;;;;12.26;87.44;100624.95;130309;1267;108773;-74
2022/09/21 08:07:56;;;;;;;8.20;4.50;;;;;;;12.38;87.46;100623.30;130360;1268;107896;-74
2022/09/21 08:11:05;;;;;;;4.90;4.00;;;;;;;12.50;86.01;100623.73;130514;1267;108750;-75
2022/09/21 08:14:18;;;;;;;7.10;4.80;;;;;;;12.54;86.29;100620.80;130127;1269;108951;-74
2022/09/21 08:17:23;;;;;;;6.40;4.70;;;;;;;12.74;86.72;100623.21;130341;1267;108722;-75
2022/09/21 08:20:29;;;;;;;5.10;4.20;;;;;;;12.85;85.13;100627.22;130363;1267;108663;-76
2022/09/21 08:23:39;;;;;;;5.20;4.10;;;;;;;12.97;86.17;100623.73;130946;1267;108674;-77
2022/09/21 08:26:45;;;;;;;6.30;4.70;;;;;;;13.02;84.87;100625.55;130489;1267;108222;-75
2022/09/21 08:29:50;;;;;;;7.50;4.80;;;;;;;13.05;85.40;100624.52;130474;1267;108870;-74
2022/09/21 08:32:56;;;;;;;6.20;4.80;;;;;;;13.05;84.17;100630.61;130449;1267;108905;-76
2022/09/21 08:36:03;;;;;;;7.90;4.90;;;;;;;12.98;84.28;100631.80;130368;1267;108752;-76
2022/09/21 08:39:09;;;;;;;4.80;4.10;;;;;;;12.87;83.96;100631.48;130464;1267;108748;-75
2022/09/21 08:42:38;;;;;;;4.80;4.30;;;;;;;12.89;83.34;100634.66;130524;1267;108716;-76
2022/09/21 08:45:46;;;;;;;5.40;4.70;;;;;;;12.93;82.78;100638.16;130454;1267;108994;-77
2022/09/21 08:48:58;;;;;;;6.60;5.20;;;;;;;13.01;83.00;100640.98;130531;1268;108648;-76
2022/09/21 08:52:07;;;;;;;6.10;5.10;;;;;;;13.16;83.19;100641.52;130697;1269;108609;-79
2022/09/21 08:55:19;;;;;;;4.00;3.60;;;;;;;13.39;83.37;100639.89;130412;1268;108746;-77
2022/09/21 08:58:26;;;;;;;7.90;5.10;;;;;;;13.43;82.20;100635.02;130323;1267;108765;-77
2022/09/21 09:01:47;;;;;;;6.80;5.30;;;;;;;13.43;83.13;100640.61;130464;1267;107165;-74
2022/09/21 09:04:59;;;;;;;5.80;5.20;;;;;;;13.52;82.50;100642.42;130828;1267;108702;-76
2022/09/21 09:08:16;;;;;;;;;;;;;;;13.48;80.87;100645.92;130555;1268;108597;-75
2022/09/21 09:11:37;;;;;;;7.30;5.60;;;;;;;13.36;81.20;100644.54;130406;1267;108441;-75
2022/09/21 09:14:58;;;;;;;7.30;4.90;;;;;;;13.39;81.34;100646.05;130736;1267;108630;-75
2022/09/21 09:18:15;;;;;;;4.70;3.80;;;;;;;13.38;81.30;100648.95;130821;1267;108673;-75
2022/09/21 09:21:25;;;;;;;4.10;3.40;;;;;;;13.38;80.72;100642.88;130572;1267;108848;-75
2022/09/21 09:24:38;;;;;;;3.90;2.70;;;;;;;13.46;80.60;100641.88;130426;1267;107659;-74
2022/09/21 09:27:47;;;;;;;3.90;2.10;;;;;;;13.60;79.89;100643.23;130389;1268;108672;-74
2022/09/21 09:30:57;;;;;;;2.00;1.60;;;;;;;13.65;78.07;100645.69;130553;1267;108728;-74
2022/09/21 09:34:11;;;;;;;1.60;1.20;;;;;;;13.57;77.54;100646.25;130325;1267;108492;-75
2022/09/21 09:37:18;;;;;;;2.60;1.80;;;;;;;13.56;78.79;100644.52;130361;1267;108837;-76
2022/09/21 09:40:47;;;;;;;2.90;1.60;;;;;;;13.70;79.21;100642.20;130415;1267;109165;-75
2022/09/21 09:44:06;;;;;;;3.30;1.80;;;;;;;14.01;79.04;100637.43;130421;1267;108997;-75
2022/09/21 09:47:21;;;;;;;1.70;1.40;;;;;;;14.27;77.57;100638.69;130353;1267;108893;-76
2022/09/21 09:50:30;;;;;;;2.20;1.90;;;;;;;14.36;74.83;100630.93;130628;1267;108613;-76
2022/09/21 09:53:35;;;;;;;2.20;1.70;;;;;;;14.33;75.48;100633.59;131144;1267;108563;-75
2022/09/21 09:56:41;;;;;;;1.90;1.60;;;;;;;14.28;75.58;100637.52;130428;1267;109746;-75
2022/09/21 09:59:54;;;;;;;2.60;1.40;;;;;;;14.23;76.82;100634.46;130450;1267;108731;-75
2022/09/21 10:03:00;;;;;;;2.10;1.50;;;;;;;14.32;76.36;100636.17;130515;1267;108789;-75
2022/09/21 10:06:05;;;;;;;2.20;1.50;;;;;;;14.36;75.91;100637.31;130428;1267;109693;-76
2022/09/21 10:09:25;;;;;;;1.60;1.40;;;;;;;14.38;75.97;100638.39;130291;1268;108803;-76
2022/09/21 10:12:32;;;;;;;2.40;1.60;;;;;;;14.46;76.76;100633.20;130604;1267;109070;-76
2022/09/21 10:15:43;;;;;;;3.40;1.80;;;;;;;14.41;74.68;100633.58;130672;1268;108937;-75
2022/09/21 10:18:55;;;;;;;2.90;1.90;;;;;;;14.31;74.14;100630.37;130502;1267;108674;-74
2022/09/21 10:22:03;;;;;;;2.70;1.90;;;;;;;14.32;74.16;100636.20;130518;1267;107340;-75
2022/09/21 10:25:17;;;;;;;1.90;1.60;;;;;;;14.31;73.41;100631.51;130543;1267;108683;-76
2022/09/21 10:28:25;;;;;;;3.00;1.40;;;;;;;14.36;75.36;100625.52;130274;1268;108887;-76
2022/09/21 10:31:31;;;;;;;3.40;1.60;;;;;;;14.42;73.69;100625.99;130325;1267;108749;-76
2022/09/21 10:34:37;;;;;;;2.20;1.40;;;;;;;14.40;73.22;100627.45;130320;1270;108563;-75
2022/09/21 10:37:45;;;;;;;2.10;1.30;;;;;;;14.52;74.33;100623.43;130334;1267;150785;-75
2022/09/21 10:40:50;;;;;;;2.50;1.50;;;;;;;14.65;73.42;100623.23;130461;1268;108837;-76
2022/09/21 10:43:56;;;;;;;2.30;1.80;;;;;;;14.79;72.32;100620.70;130340;1267;108886;-75
2022/09/21 10:47:15;;;;;;;3.90;2.10;;;;;;;14.85;73.28;100625.32;130423;1267;108922;-75
2022/09/21 10:50:28;;;;;;;4.40;2.90;;;;;;;14.72;72.29;100627.66;130865;1267;109002;-74
2022/09/21 10:53:35;;;;;;;3.60;2.40;;;;;;;14.49;73.68;100629.28;130338;1270;108535;-73
2022/09/21 10:56:53;;;;;;;1.80;1.50;;;;;;;14.44;74.43;100626.41;132263;1267;108635;-75
2022/09/21 10:59:58;;;;;;;3.00;1.80;;;;;;;14.40;73.92;100630.26;130578;1267;108971;-75
2022/09/21 11:03:27;;;;;;;2.40;1.60;;;;;;;14.32;73.50;100636.13;130459;1267;108686;-75
2022/09/21 11:06:38;;;;;;;2.00;1.60;;;;;;;14.35;73.49;100624.05;130429;1268;108693;-75
2022/09/21 11:09:53;;;;;;;2.20;1.80;;;;;;;14.48;73.37;100625.45;130501;1267;108622;-76
2022/09/21 11:13:11;;;;;;;2.50;1.90;;;;;;;14.63;72.24;100620.83;130547;1267;108871;-74
2022/09/21 11:16:21;;;;;;;2.80;2.00;;;;;;;14.86;71.18;100614.86;130391;1267;108692;-75
2022/09/21 11:19:35;;;;;;;4.00;2.60;;;;;;;15.15;71.64;100612.45;130413;1269;108775;-73
2022/09/21 11:22:52;;;;;;;2.40;2.10;;;;;;;15.40;68.56;100616.73;130448;1267;108585;-73
2022/09/21 11:26:05;;;;;;;2.00;1.80;;;;;;;15.53;69.12;100617.19;130403;1269;108880;-73
2022/09/21 11:29:17;;;;;;;1.50;1.10;;;;;;;15.30;69.15;100611.83;130347;1269;108924;-73
2022/09/21 11:32:56;;;;;;;1.10;1.00;;;;;;;15.03;69.83;100608.63;130430;1267;108583;-73
2022/09/21 11:36:07;;;;;;;1.30;1.10;;;;;;;14.84;71.21;100605.41;130312;1270;108681;-73
2022/09/21 11:39:23;;;;;;;2.60;1.40;;;;;;;14.74;71.36;100602.61;130525;1267;108899;-74
2022/09/21 11:42:44;;;;;;;2.00;1.30;;;;;;;14.67;71.49;100602.84;130341;1267;109981;-74
2022/09/21 11:46:04;;;;;;;1.60;1.30;;;;;;;14.68;71.84;100598.59;130308;1269;108842;-74
2022/09/21 11:49:32;;;;;;;1.70;1.30;;;;;;;14.85;71.43;100601.88;130554;1267;108705;-74
2022/09/21 11:52:57;;;;;;;1.50;1.00;;;;;;;14.86;70.75;100600.86;130458;1267;108988;-74
2022/09/21 11:56:29;;;;;;;6.20;1.60;;;;;;;14.68;71.83;100615.35;130352;1267;108639;-74
2022/09/21 11:59:50;;;;;;;1.90;1.60;;;;;;;14.41;74.29;100621.81;130577;1267;108653;-74
2022/09/21 12:03:38;;;;;;;2.90;1.80;;;;;;;14.17;74.99;100618.35;130482;1267;108873;-74
2022/09/21 12:06:57;;;;;;;3.50;1.50;;;;;;;14.06;75.83;100615.07;130495;1267;108951;-73
2022/09/21 12:10:23;;;;;;;4.40;2.60;;;;;;;13.88;75.93;100617.57;130582;1267;109663;-74
2022/09/21 12:13:38;;;;;;;2.40;1.90;;;;;;;13.82;76.23;100612.34;130367;1267;108723;-74
2022/09/21 12:16:50;;;;;;;3.40;2.50;;;;;;;13.93;76.79;100619.15;130371;1268;108872;-74
2022/09/21 12:20:11;;;;;;;6.30;5.40;;;;;;;14.05;76.63;100614.29;130500;1269;107657;-75
2022/09/21 12:23:19;;;;;;;3.40;2.50;;;;;;;14.21;76.93;100610.77;130503;1268;109110;-75
2022/09/21 12:26:27;;;;;;;4.10;2.80;;;;;;;14.37;77.42;100606.60;130392;1267;108596;-74
2022/09/21 12:29:37;;;;;;;2.30;1.50;;;;;;;14.61;76.83;100597.59;130258;1269;108779;-74
2022/09/21 12:32:52;;;;;;;2.00;1.70;;;;;;;14.67;75.15;100595.14;130423;1267;108791;-75
2022/09/21 12:36:03;;;;;;;2.40;1.40;;;;;;;14.70;75.27;100598.33;130402;1268;108804;-75
2022/09/21 12:39:18;;;;;;;2.00;1.30;;;;;;;14.63;73.10;100596.00;130489;1267;107545;-74
2022/09/21 12:42:36;;;;;;;2.50;1.70;;;;;;;14.58;74.10;100589.02;130718;1268;108569;-74
2022/09/21 12:45:46;;;;;;;3.50;2.20;;;;;;;14.50;73.31;100585.98;130257;1267;108832;-75
2022/09/21 12:48:52;;;;;;;2.20;1.50;;;;;;;14.54;73.90;100583.46;130330;1268;108619;-74
2022/09/21 12:52:05;;;;;;;2.90;1.50;;;;;;;14.56;73.83;100584.17;130205;1267;108616;-75
2022/09/21 12:55:31;;;;;;;1.80;1.20;;;;;;;14.53;73.06;100587.29;130254;1268;108582;-74
2022/09/21 12:58:50;;;;;;;2.60;2.10;;;;;;;14.60;72.94;100588.17;130425;1268;108697;-75
2022/09/21 13:02:10;;;;;;;2.20;1.50;;;;;;;14.71;71.88;100586.60;130333;1270;108676;-77
2022/09/21 13:05:30;;;;;;;2.00;1.40;;;;;;;14.84;71.24;100586.92;130635;1268;107722;-77
2022/09/21 13:08:38;;;;;;;1.50;1.00;;;;;;;14.86;70.01;100586.52;130365;1269;108905;-74
2022/09/21 13:11:55;;;;;;;2.10;1.00;;;;;;;14.97;69.43;100587.84;130522;1268;108854;-76
2022/09/21 13:15:12;;;;;;;1.30;1.10;;;;;;;15.12;69.64;100587.23;130322;1268;109095;-73
2022/09/21 13:18:23;;;;;;;1.90;1.20;;;;;;;15.10;67.51;100586.88;130240;1268;108759;-75
2022/09/21 13:21:32;;;;;;;2.70;1.50;;;;;;;15.15;69.18;100585.41;130410;1268;108821;-76
2022/09/21 13:24:37;;;;;;;2.70;1.80;;;;;;;15.24;68.84;100586.01;130449;1268;108962;-75
2022/09/21 13:28:16;;;;;;;1.70;1.20;;;;;;;15.30;68.78;100586.66;130341;1271;108740;-75
2022/09/21 13:31:43;;;;;;;1.40;1.30;;;;;;;15.27;69.17;100583.27;130010;1268;108933;-76
2022/09/21 13:34:49;;;;;;;1.50;1.20;;;;;;;15.23;67.75;100583.98;130409;1268;108619;-76
2022/09/21 13:38:25;;;;;;;2.00;1.30;;;;;;;15.19;68.96;100580.66;130327;1268;108598;-74
2022/09/21 13:41:30;;;;;;;1.40;1.10;;;;;;;15.26;67.01;100576.15;130450;1268;107626;-74
2022/09/21 13:44:45;;;;;;;1.60;1.20;;;;;;;15.20;66.96;100581.63;130530;1268;109171;-73
2022/09/21 13:47:57;;;;;;;1.90;1.10;;;;;;;15.01;67.56;100583.75;130779;1268;108316;-74
2022/09/21 13:51:09;;;;;;;2.90;1.20;;;;;;;14.77;67.34;100589.38;131209;1267;109443;-75
2022/09/21 13:54:16;;;;;;;2.30;1.10;;;;;;;14.61;68.68;100594.78;130463;1271;108750;-75
2022/09/21 13:57:28;;;;;;;1.80;1.20;;;;;;;14.49;69.25;100594.73;130867;1268;108537;-74
2022/09/21 14:00:38;;;;;;;2.30;1.50;;;;;;;14.47;70.09;100593.38;130474;1268;108662;-73
2022/09/21 14:03:48;;;;;;;3.90;1.20;;;;;;;14.48;70.17;100598.23;130629;1268;108362;-76
2022/09/21 14:06:54;;;;;;;1.80;1.50;;;;;;;14.39;70.01;100601.23;130672;1268;108551;-75
2022/09/21 14:10:03;;;;;;;5.10;3.20;;;;;;;14.25;69.56;100602.79;130506;1268;109005;-74
2022/09/21 14:13:31;;;;;;;3.00;1.70;;;;;;;14.09;69.92;100607.76;130594;1268;108648;-75
2022/09/21 14:16:58;;;;;;;3.90;2.80;;;;;;;13.94;70.48;100609.55;130859;1267;109083;-75
2022/09/21 14:20:06;;;;;;;98.60;72.60;;;;;;;13.84;70.92;100609.08;130566;1268;108847;-75
2022/09/21 14:23:28;;;;;;;11.60;8.20;;;;;;;13.72;71.13;100611.74;130623;1268;107731;-77
2022/09/21 14:26:35;;;;;;;;;;;;;;;13.60;71.32;100608.55;130610;1268;108930;-76
2022/09/21 14:29:45;;;;;;;7.50;2.20;;;;;;;13.57;71.84;100612.45;130413;1270;109044;-77